sensor_id;sensor_type;location;lat;lon;timestamp;P1;durP1;ratioP1;P2;durP2;ratioP2
72771;SDS011;60894;42.544;1.516;2023-03-11T00:00:36;4.78;;;2.15;;
72771;SDS011;60894;42.544;1.516;2023-03-11T00:03:06;6.43;;;2.58;;
72771;SDS011;60894;42.544;1.516;2023-03-11T00:05:35;5.40;;;2.30;;
72771;SDS011;60894;42.544;1.516;2023-03-11T00:08:04;4.97;;;1.95;;
72771;SDS011;60894;42.544;1.516;2023-03-11T00:10:32;5.00;;;2.00;;
72771;SDS011;60894;42.544;1.516;2023-03-11T00:13:00;6.32;;;2.70;;
72771;SDS011;60894;42.544;1.516;2023-03-11T00:15:29;4.15;;;1.60;;
72771;SDS011;60894;42.544;1.516;2023-03-11T00:17:56;4.40;;;1.60;;
72771;SDS011;60894;42.544;1.516;2023-03-11T00:20:24;10.82;;;6.13;;
72771;SDS011;60894;42.544;1.516;2023-03-11T00:22:52;5.30;;;2.22;;
72771;SDS011;60894;42.544;1.516;2023-03-11T00:25:20;4.88;;;1.90;;
72771;SDS011;60894;42.544;1.516;2023-03-11T00:27:50;4.68;;;2.10;;
72771;SDS011;60894;42.544;1.516;2023-03-11T00:30:17;3.57;;;1.53;;
72771;SDS011;60894;42.544;1.516;2023-03-11T00:32:47;5.15;;;1.90;;
72771;SDS011;60894;42.544;1.516;2023-03-11T00:35:16;3.72;;;1.60;;
72771;SDS011;60894;42.544;1.516;2023-03-11T00:37:45;3.10;;;1.50;;
72771;SDS011;60894;42.544;1.516;2023-03-11T00:40:13;2.92;;;1.50;;
72771;SDS011;60894;42.544;1.516;2023-03-11T00:42:42;3.30;;;1.60;;
72771;SDS011;60894;42.544;1.516;2023-03-11T00:45:10;3.70;;;1.52;;
72771;SDS011;60894;42.544;1.516;2023-03-11T00:47:37;5.82;;;1.90;;
72771;SDS011;60894;42.544;1.516;2023-03-11T00:50:06;3.75;;;1.52;;
72771;SDS011;60894;42.544;1.516;2023-03-11T00:52:36;4.72;;;1.73;;
72771;SDS011;60894;42.544;1.516;2023-03-11T00:55:03;4.40;;;1.70;;
72771;SDS011;60894;42.544;1.516;2023-03-11T00:57:30;3.50;;;1.33;;
72771;SDS011;60894;42.544;1.516;2023-03-11T00:59:57;7.00;;;1.70;;
72771;SDS011;60894;42.544;1.516;2023-03-11T01:02:24;2.70;;;1.20;;
72771;SDS011;60894;42.544;1.516;2023-03-11T01:04:52;3.67;;;1.33;;
72771;SDS011;60894;42.544;1.516;2023-03-11T01:07:21;2.77;;;1.27;;
72771;SDS011;60894;42.544;1.516;2023-03-11T01:09:48;2.67;;;1.13;;
72771;SDS011;60894;42.544;1.516;2023-03-11T01:12:15;3.40;;;1.45;;
72771;SDS011;60894;42.544;1.516;2023-03-11T01:14:42;4.95;;;1.25;;
72771;SDS011;60894;42.544;1.516;2023-03-11T01:17:09;4.78;;;1.40;;
72771;SDS011;60894;42.544;1.516;2023-03-11T01:19:36;3.33;;;1.40;;
72771;SDS011;60894;42.544;1.516;2023-03-11T01:22:03;3.45;;;1.30;;
72771;SDS011;60894;42.544;1.516;2023-03-11T01:24:31;4.40;;;1.70;;
72771;SDS011;60894;42.544;1.516;2023-03-11T01:26:58;1.13;;;0.80;;
72771;SDS011;60894;42.544;1.516;2023-03-11T01:29:25;3.42;;;1.13;;
72771;SDS011;60894;42.544;1.516;2023-03-11T01:31:52;3.37;;;1.20;;
72771;SDS011;60894;42.544;1.516;2023-03-11T01:34:19;3.20;;;1.40;;
72771;SDS011;60894;42.544;1.516;2023-03-11T01:36:46;5.13;;;2.60;;
72771;SDS011;60894;42.544;1.516;2023-03-11T01:39:13;3.70;;;1.48;;
72771;SDS011;60894;42.544;1.516;2023-03-11T01:41:41;3.25;;;1.42;;
72771;SDS011;60894;42.544;1.516;2023-03-11T01:44:09;4.30;;;1.50;;
72771;SDS011;60894;42.544;1.516;2023-03-11T01:47:17;4.38;;;1.60;;
72771;SDS011;60894;42.544;1.516;2023-03-11T01:49:44;3.65;;;1.45;;
72771;SDS011;60894;42.544;1.516;2023-03-11T01:52:11;4.07;;;1.30;;
72771;SDS011;60894;42.544;1.516;2023-03-11T01:54:38;2.88;;;1.20;;
72771;SDS011;60894;42.544;1.516;2023-03-11T01:57:09;4.40;;;1.33;;
72771;SDS011;60894;42.544;1.516;2023-03-11T01:59:39;4.90;;;1.40;;
72771;SDS011;60894;42.544;1.516;2023-03-11T02:02:10;3.70;;;1.50;;
72771;SDS011;60894;42.544;1.516;2023-03-11T02:04:41;2.70;;;1.10;;
72771;SDS011;60894;42.544;1.516;2023-03-11T02:07:08;2.80;;;1.20;;
72771;SDS011;60894;42.544;1.516;2023-03-11T02:09:36;3.00;;;1.00;;
72771;SDS011;60894;42.544;1.516;2023-03-11T02:12:04;2.55;;;1.10;;
72771;SDS011;60894;42.544;1.516;2023-03-11T02:14:34;2.38;;;1.17;;
72771;SDS011;60894;42.544;1.516;2023-03-11T02:17:04;2.47;;;1.00;;
72771;SDS011;60894;42.544;1.516;2023-03-11T02:19:33;3.53;;;1.23;;
72771;SDS011;60894;42.544;1.516;2023-03-11T02:22:06;3.33;;;1.43;;
72771;SDS011;60894;42.544;1.516;2023-03-11T02:24:35;2.25;;;1.00;;
72771;SDS011;60894;42.544;1.516;2023-03-11T02:27:08;4.35;;;1.48;;
72771;SDS011;60894;42.544;1.516;2023-03-11T02:29:37;2.92;;;1.00;;
72771;SDS011;60894;42.544;1.516;2023-03-11T02:32:06;3.80;;;1.20;;
72771;SDS011;60894;42.544;1.516;2023-03-11T02:34:35;6.20;;;1.23;;
72771;SDS011;60894;42.544;1.516;2023-03-11T02:37:04;3.15;;;0.80;;
72771;SDS011;60894;42.544;1.516;2023-03-11T02:39:32;2.20;;;0.88;;
72771;SDS011;60894;42.544;1.516;2023-03-11T02:42:03;2.13;;;0.98;;
72771;SDS011;60894;42.544;1.516;2023-03-11T02:44:33;2.85;;;1.02;;
72771;SDS011;60894;42.544;1.516;2023-03-11T02:47:01;2.43;;;0.97;;
72771;SDS011;60894;42.544;1.516;2023-03-11T02:49:28;3.10;;;1.20;;
72771;SDS011;60894;42.544;1.516;2023-03-11T02:51:56;3.10;;;0.90;;
72771;SDS011;60894;42.544;1.516;2023-03-11T02:54:23;1.70;;;0.80;;
72771;SDS011;60894;42.544;1.516;2023-03-11T02:56:49;3.28;;;1.30;;
72771;SDS011;60894;42.544;1.516;2023-03-11T02:59:16;2.03;;;0.93;;
72771;SDS011;60894;42.544;1.516;2023-03-11T03:01:45;3.95;;;1.10;;
72771;SDS011;60894;42.544;1.516;2023-03-11T03:04:11;2.35;;;1.10;;
72771;SDS011;60894;42.544;1.516;2023-03-11T03:06:38;2.88;;;1.15;;
72771;SDS011;60894;42.544;1.516;2023-03-11T03:09:05;4.28;;;1.40;;
72771;SDS011;60894;42.544;1.516;2023-03-11T03:11:32;6.53;;;1.40;;
72771;SDS011;60894;42.544;1.516;2023-03-11T03:13:59;3.70;;;1.02;;
72771;SDS011;60894;42.544;1.516;2023-03-11T03:16:26;1.88;;;0.90;;
72771;SDS011;60894;42.544;1.516;2023-03-11T03:18:54;1.77;;;0.80;;
72771;SDS011;60894;42.544;1.516;2023-03-11T03:21:21;3.03;;;1.38;;
72771;SDS011;60894;42.544;1.516;2023-03-11T03:23:48;2.23;;;0.90;;
72771;SDS011;60894;42.544;1.516;2023-03-11T03:26:15;2.20;;;1.00;;
72771;SDS011;60894;42.544;1.516;2023-03-11T03:28:42;1.30;;;0.88;;
72771;SDS011;60894;42.544;1.516;2023-03-11T03:31:09;2.53;;;1.00;;
72771;SDS011;60894;42.544;1.516;2023-03-11T03:33:36;2.38;;;1.02;;
72771;SDS011;60894;42.544;1.516;2023-03-11T03:36:06;3.70;;;1.20;;
72771;SDS011;60894;42.544;1.516;2023-03-11T03:38:34;3.58;;;1.35;;
72771;SDS011;60894;42.544;1.516;2023-03-11T03:41:00;4.35;;;1.40;;
72771;SDS011;60894;42.544;1.516;2023-03-11T03:43:28;3.05;;;1.10;;
72771;SDS011;60894;42.544;1.516;2023-03-11T03:45:55;3.50;;;1.20;;
72771;SDS011;60894;42.544;1.516;2023-03-11T03:48:23;2.30;;;1.10;;
72771;SDS011;60894;42.544;1.516;2023-03-11T03:50:50;3.65;;;1.20;;
72771;SDS011;60894;42.544;1.516;2023-03-11T03:53:18;3.75;;;1.23;;
72771;SDS011;60894;42.544;1.516;2023-03-11T03:55:45;3.55;;;1.30;;
72771;SDS011;60894;42.544;1.516;2023-03-11T03:58:12;2.22;;;1.10;;
72771;SDS011;60894;42.544;1.516;2023-03-11T04:00:39;3.47;;;1.30;;
72771;SDS011;60894;42.544;1.516;2023-03-11T04:03:06;4.72;;;1.50;;
72771;SDS011;60894;42.544;1.516;2023-03-11T04:05:32;3.30;;;1.30;;
72771;SDS011;60894;42.544;1.516;2023-03-11T04:08:00;2.85;;;1.10;;
72771;SDS011;60894;42.544;1.516;2023-03-11T04:10:28;3.20;;;1.50;;
72771;SDS011;60894;42.544;1.516;2023-03-11T04:12:55;4.23;;;1.20;;
72771;SDS011;60894;42.544;1.516;2023-03-11T04:15:22;2.47;;;1.05;;
72771;SDS011;60894;42.544;1.516;2023-03-11T04:17:50;3.22;;;1.60;;
72771;SDS011;60894;42.544;1.516;2023-03-11T04:20:17;2.47;;;1.30;;
72771;SDS011;60894;42.544;1.516;2023-03-11T04:22:43;3.97;;;1.50;;
72771;SDS011;60894;42.544;1.516;2023-03-11T04:25:10;2.87;;;1.50;;
72771;SDS011;60894;42.544;1.516;2023-03-11T04:27:38;7.28;;;3.00;;
72771;SDS011;60894;42.544;1.516;2023-03-11T04:30:07;2.40;;;1.20;;
72771;SDS011;60894;42.544;1.516;2023-03-11T04:32:35;3.88;;;1.83;;
72771;SDS011;60894;42.544;1.516;2023-03-11T04:35:02;3.42;;;1.60;;
72771;SDS011;60894;42.544;1.516;2023-03-11T04:37:29;3.87;;;1.40;;
72771;SDS011;60894;42.544;1.516;2023-03-11T04:39:56;2.80;;;1.15;;
72771;SDS011;60894;42.544;1.516;2023-03-11T04:42:23;4.07;;;1.30;;
72771;SDS011;60894;42.544;1.516;2023-03-11T04:44:51;6.07;;;1.50;;
72771;SDS011;60894;42.544;1.516;2023-03-11T04:47:18;3.75;;;1.40;;
72771;SDS011;60894;42.544;1.516;2023-03-11T04:49:45;2.97;;;1.27;;
72771;SDS011;60894;42.544;1.516;2023-03-11T04:52:12;2.85;;;1.35;;
72771;SDS011;60894;42.544;1.516;2023-03-11T04:54:39;2.88;;;1.10;;
72771;SDS011;60894;42.544;1.516;2023-03-11T04:57:07;3.60;;;1.30;;
72771;SDS011;60894;42.544;1.516;2023-03-11T04:59:34;6.93;;;3.03;;
72771;SDS011;60894;42.544;1.516;2023-03-11T05:02:02;3.37;;;1.50;;
72771;SDS011;60894;42.544;1.516;2023-03-11T05:04:29;4.18;;;1.50;;
72771;SDS011;60894;42.544;1.516;2023-03-11T05:06:56;4.57;;;1.40;;
72771;SDS011;60894;42.544;1.516;2023-03-11T05:09:23;3.88;;;1.50;;
72771;SDS011;60894;42.544;1.516;2023-03-11T05:11:50;2.85;;;1.38;;
72771;SDS011;60894;42.544;1.516;2023-03-11T05:14:16;5.03;;;1.60;;
72771;SDS011;60894;42.544;1.516;2023-03-11T05:16:43;4.15;;;1.60;;
72771;SDS011;60894;42.544;1.516;2023-03-11T05:19:11;4.65;;;1.60;;
72771;SDS011;60894;42.544;1.516;2023-03-11T05:21:58;3.40;;;1.33;;
72771;SDS011;60894;42.544;1.516;2023-03-11T05:24:26;2.83;;;1.10;;
72771;SDS011;60894;42.544;1.516;2023-03-11T05:26:53;2.90;;;1.40;;
72771;SDS011;60894;42.544;1.516;2023-03-11T05:29:20;4.50;;;1.45;;
72771;SDS011;60894;42.544;1.516;2023-03-11T05:31:47;1.83;;;1.00;;
72771;SDS011;60894;42.544;1.516;2023-03-11T05:34:16;3.30;;;1.33;;
72771;SDS011;60894;42.544;1.516;2023-03-11T05:36:43;2.42;;;1.40;;
72771;SDS011;60894;42.544;1.516;2023-03-11T05:39:10;3.90;;;1.80;;
72771;SDS011;60894;42.544;1.516;2023-03-11T05:41:37;2.15;;;1.10;;
72771;SDS011;60894;42.544;1.516;2023-03-11T05:44:04;2.22;;;0.98;;
72771;SDS011;60894;42.544;1.516;2023-03-11T05:46:31;1.92;;;1.08;;
72771;SDS011;60894;42.544;1.516;2023-03-11T05:48:58;1.77;;;0.90;;
72771;SDS011;60894;42.544;1.516;2023-03-11T05:51:27;3.27;;;0.90;;
72771;SDS011;60894;42.544;1.516;2023-03-11T05:53:54;3.30;;;1.10;;
72771;SDS011;60894;42.544;1.516;2023-03-11T05:56:21;2.15;;;1.08;;
72771;SDS011;60894;42.544;1.516;2023-03-11T05:58:49;3.28;;;1.20;;
72771;SDS011;60894;42.544;1.516;2023-03-11T06:01:16;2.03;;;1.08;;
72771;SDS011;60894;42.544;1.516;2023-03-11T06:03:44;3.10;;;1.20;;
72771;SDS011;60894;42.544;1.516;2023-03-11T06:06:11;1.98;;;1.10;;
72771;SDS011;60894;42.544;1.516;2023-03-11T06:08:40;2.70;;;1.33;;
72771;SDS011;60894;42.544;1.516;2023-03-11T06:11:10;3.03;;;1.17;;
72771;SDS011;60894;42.544;1.516;2023-03-11T06:13:37;3.70;;;1.13;;
72771;SDS011;60894;42.544;1.516;2023-03-11T06:16:04;2.47;;;1.20;;
72771;SDS011;60894;42.544;1.516;2023-03-11T06:18:31;2.13;;;1.25;;
72771;SDS011;60894;42.544;1.516;2023-03-11T06:20:59;2.88;;;1.40;;
72771;SDS011;60894;42.544;1.516;2023-03-11T06:23:26;5.75;;;1.60;;
72771;SDS011;60894;42.544;1.516;2023-03-11T06:25:55;2.40;;;1.00;;
72771;SDS011;60894;42.544;1.516;2023-03-11T06:28:23;4.23;;;1.50;;
72771;SDS011;60894;42.544;1.516;2023-03-11T06:30:50;3.83;;;1.50;;
72771;SDS011;60894;42.544;1.516;2023-03-11T06:33:18;3.67;;;1.50;;
72771;SDS011;60894;42.544;1.516;2023-03-11T06:35:54;4.18;;;1.30;;
72771;SDS011;60894;42.544;1.516;2023-03-11T06:38:22;4.38;;;1.80;;
72771;SDS011;60894;42.544;1.516;2023-03-11T06:40:48;3.97;;;1.50;;
72771;SDS011;60894;42.544;1.516;2023-03-11T06:43:17;5.63;;;2.78;;
72771;SDS011;60894;42.544;1.516;2023-03-11T06:45:44;4.93;;;1.60;;
72771;SDS011;60894;42.544;1.516;2023-03-11T06:48:11;6.45;;;1.88;;
72771;SDS011;60894;42.544;1.516;2023-03-11T06:50:38;4.88;;;1.33;;
72771;SDS011;60894;42.544;1.516;2023-03-11T06:53:05;2.60;;;1.20;;
72771;SDS011;60894;42.544;1.516;2023-03-11T06:55:32;3.30;;;1.50;;
72771;SDS011;60894;42.544;1.516;2023-03-11T06:57:59;9.38;;;4.50;;
72771;SDS011;60894;42.544;1.516;2023-03-11T07:00:27;7.53;;;3.55;;
72771;SDS011;60894;42.544;1.516;2023-03-11T07:02:55;7.10;;;3.20;;
72771;SDS011;60894;42.544;1.516;2023-03-11T07:05:22;10.20;;;3.40;;
72771;SDS011;60894;42.544;1.516;2023-03-11T07:07:51;5.78;;;1.95;;
72771;SDS011;60894;42.544;1.516;2023-03-11T07:10:19;3.97;;;1.50;;
72771;SDS011;60894;42.544;1.516;2023-03-11T07:12:46;7.00;;;2.80;;
72771;SDS011;60894;42.544;1.516;2023-03-11T07:15:13;8.35;;;2.20;;
72771;SDS011;60894;42.544;1.516;2023-03-11T07:17:41;7.23;;;2.40;;
72771;SDS011;60894;42.544;1.516;2023-03-11T07:20:08;5.85;;;2.00;;
72771;SDS011;60894;42.544;1.516;2023-03-11T07:22:36;5.50;;;2.63;;
72771;SDS011;60894;42.544;1.516;2023-03-11T07:25:03;7.43;;;2.90;;
72771;SDS011;60894;42.544;1.516;2023-03-11T07:27:31;7.13;;;4.35;;
72771;SDS011;60894;42.544;1.516;2023-03-11T07:29:59;5.07;;;2.40;;
72771;SDS011;60894;42.544;1.516;2023-03-11T07:32:26;3.67;;;1.83;;
72771;SDS011;60894;42.544;1.516;2023-03-11T07:34:54;8.35;;;3.53;;
72771;SDS011;60894;42.544;1.516;2023-03-11T07:37:21;5.07;;;1.98;;
72771;SDS011;60894;42.544;1.516;2023-03-11T07:39:48;4.40;;;1.65;;
72771;SDS011;60894;42.544;1.516;2023-03-11T07:42:15;3.23;;;1.57;;
72771;SDS011;60894;42.544;1.516;2023-03-11T07:44:42;7.63;;;1.48;;
72771;SDS011;60894;42.544;1.516;2023-03-11T07:47:09;4.15;;;1.63;;
72771;SDS011;60894;42.544;1.516;2023-03-11T07:49:35;5.22;;;1.50;;
72771;SDS011;60894;42.544;1.516;2023-03-11T07:52:04;4.07;;;1.60;;
72771;SDS011;60894;42.544;1.516;2023-03-11T07:54:32;6.27;;;1.70;;
72771;SDS011;60894;42.544;1.516;2023-03-11T07:56:58;9.70;;;3.30;;
72771;SDS011;60894;42.544;1.516;2023-03-11T07:59:25;7.93;;;2.97;;
72771;SDS011;60894;42.544;1.516;2023-03-11T08:01:53;9.05;;;2.50;;
72771;SDS011;60894;42.544;1.516;2023-03-11T08:04:21;8.00;;;2.60;;
72771;SDS011;60894;42.544;1.516;2023-03-11T08:06:48;2.80;;;1.53;;
72771;SDS011;60894;42.544;1.516;2023-03-11T08:09:16;6.32;;;2.70;;
72771;SDS011;60894;42.544;1.516;2023-03-11T08:11:43;6.75;;;2.40;;
72771;SDS011;60894;42.544;1.516;2023-03-11T08:14:10;10.32;;;3.70;;
72771;SDS011;60894;42.544;1.516;2023-03-11T08:16:38;3.65;;;1.48;;
72771;SDS011;60894;42.544;1.516;2023-03-11T08:19:05;4.83;;;2.00;;
72771;SDS011;60894;42.544;1.516;2023-03-11T08:21:32;3.40;;;1.60;;
72771;SDS011;60894;42.544;1.516;2023-03-11T08:23:59;4.53;;;1.75;;
72771;SDS011;60894;42.544;1.516;2023-03-11T08:26:29;3.85;;;1.80;;
72771;SDS011;60894;42.544;1.516;2023-03-11T08:28:56;2.88;;;1.55;;
72771;SDS011;60894;42.544;1.516;2023-03-11T08:31:24;6.07;;;2.30;;
72771;SDS011;60894;42.544;1.516;2023-03-11T08:33:53;7.78;;;2.50;;
72771;SDS011;60894;42.544;1.516;2023-03-11T08:36:22;6.07;;;2.20;;
72771;SDS011;60894;42.544;1.516;2023-03-11T08:38:49;4.07;;;1.80;;
72771;SDS011;60894;42.544;1.516;2023-03-11T08:41:16;4.70;;;1.80;;
72771;SDS011;60894;42.544;1.516;2023-03-11T08:43:44;4.80;;;2.10;;
72771;SDS011;60894;42.544;1.516;2023-03-11T08:46:13;15.15;;;2.42;;
72771;SDS011;60894;42.544;1.516;2023-03-11T08:48:43;10.07;;;2.00;;
72771;SDS011;60894;42.544;1.516;2023-03-11T08:51:10;6.05;;;2.00;;
72771;SDS011;60894;42.544;1.516;2023-03-11T08:53:37;7.72;;;3.40;;
72771;SDS011;60894;42.544;1.516;2023-03-11T08:56:05;4.67;;;1.90;;
72771;SDS011;60894;42.544;1.516;2023-03-11T08:58:32;7.20;;;3.40;;
72771;SDS011;60894;42.544;1.516;2023-03-11T09:01:01;7.13;;;2.63;;
72771;SDS011;60894;42.544;1.516;2023-03-11T09:03:29;5.82;;;2.20;;
72771;SDS011;60894;42.544;1.516;2023-03-11T09:05:57;8.15;;;2.67;;
72771;SDS011;60894;42.544;1.516;2023-03-11T09:08:25;12.13;;;4.60;;
72771;SDS011;60894;42.544;1.516;2023-03-11T09:10:52;5.13;;;2.20;;
72771;SDS011;60894;42.544;1.516;2023-03-11T09:13:19;7.15;;;2.55;;
72771;SDS011;60894;42.544;1.516;2023-03-11T09:15:46;7.75;;;2.90;;
72771;SDS011;60894;42.544;1.516;2023-03-11T09:18:16;6.45;;;2.45;;
72771;SDS011;60894;42.544;1.516;2023-03-11T09:20:43;9.63;;;2.50;;
72771;SDS011;60894;42.544;1.516;2023-03-11T09:23:14;6.43;;;2.40;;
72771;SDS011;60894;42.544;1.516;2023-03-11T09:25:42;6.47;;;2.65;;
72771;SDS011;60894;42.544;1.516;2023-03-11T09:28:09;7.05;;;3.40;;
72771;SDS011;60894;42.544;1.516;2023-03-11T09:30:36;13.63;;;4.38;;
72771;SDS011;60894;42.544;1.516;2023-03-11T09:33:03;36.07;;;18.30;;
72771;SDS011;60894;42.544;1.516;2023-03-11T09:35:31;24.25;;;11.27;;
72771;SDS011;60894;42.544;1.516;2023-03-11T09:37:58;15.55;;;7.38;;
72771;SDS011;60894;42.544;1.516;2023-03-11T09:40:26;16.85;;;6.57;;
72771;SDS011;60894;42.544;1.516;2023-03-11T09:43:05;21.40;;;8.30;;
72771;SDS011;60894;42.544;1.516;2023-03-11T09:45:41;6.47;;;2.43;;
72771;SDS011;60894;42.544;1.516;2023-03-11T09:48:15;7.63;;;2.75;;
72771;SDS011;60894;42.544;1.516;2023-03-11T09:50:51;3.53;;;1.40;;
72771;SDS011;60894;42.544;1.516;2023-03-11T09:53:22;6.93;;;1.83;;
72771;SDS011;60894;42.544;1.516;2023-03-11T09:55:55;3.25;;;1.30;;
72771;SDS011;60894;42.544;1.516;2023-03-11T09:58:26;1.80;;;0.87;;
72771;SDS011;60894;42.544;1.516;2023-03-11T10:01:03;2.55;;;1.30;;
72771;SDS011;60894;42.544;1.516;2023-03-11T10:03:40;2.85;;;1.10;;
72771;SDS011;60894;42.544;1.516;2023-03-11T10:06:16;5.07;;;1.75;;
72771;SDS011;60894;42.544;1.516;2023-03-11T10:08:48;3.33;;;1.10;;
72771;SDS011;60894;42.544;1.516;2023-03-11T10:11:26;2.07;;;0.87;;
72771;SDS011;60894;42.544;1.516;2023-03-11T10:14:05;3.05;;;0.90;;
72771;SDS011;60894;42.544;1.516;2023-03-11T10:16:43;1.73;;;0.80;;
72771;SDS011;60894;42.544;1.516;2023-03-11T10:19:20;1.95;;;0.90;;
72771;SDS011;60894;42.544;1.516;2023-03-11T10:22:01;2.42;;;1.20;;
72771;SDS011;60894;42.544;1.516;2023-03-11T10:24:37;4.03;;;1.20;;
72771;SDS011;60894;42.544;1.516;2023-03-11T10:27:16;1.85;;;0.70;;
72771;SDS011;60894;42.544;1.516;2023-03-11T10:29:49;1.80;;;1.00;;
72771;SDS011;60894;42.544;1.516;2023-03-11T10:32:21;1.70;;;0.90;;
72771;SDS011;60894;42.544;1.516;2023-03-11T10:34:52;2.78;;;1.10;;
72771;SDS011;60894;42.544;1.516;2023-03-11T10:37:25;3.60;;;1.20;;
72771;SDS011;60894;42.544;1.516;2023-03-11T10:39:55;1.63;;;0.70;;
72771;SDS011;60894;42.544;1.516;2023-03-11T10:42:30;10.88;;;2.92;;
72771;SDS011;60894;42.544;1.516;2023-03-11T10:44:59;2.25;;;0.90;;
72771;SDS011;60894;42.544;1.516;2023-03-11T10:47:27;3.63;;;0.77;;
72771;SDS011;60894;42.544;1.516;2023-03-11T10:49:54;2.37;;;1.10;;
72771;SDS011;60894;42.544;1.516;2023-03-11T10:52:21;4.18;;;1.50;;
72771;SDS011;60894;42.544;1.516;2023-03-11T10:54:57;2.47;;;1.10;;
72771;SDS011;60894;42.544;1.516;2023-03-11T10:57:28;4.05;;;1.08;;
72771;SDS011;60894;42.544;1.516;2023-03-11T10:59:58;4.28;;;1.30;;
72771;SDS011;60894;42.544;1.516;2023-03-11T11:02:27;2.60;;;0.90;;
72771;SDS011;60894;42.544;1.516;2023-03-11T11:05:04;4.75;;;1.10;;
72771;SDS011;60894;42.544;1.516;2023-03-11T11:07:46;3.08;;;0.70;;
72771;SDS011;60894;42.544;1.516;2023-03-11T11:10:17;3.42;;;1.00;;
72771;SDS011;60894;42.544;1.516;2023-03-11T11:12:52;2.78;;;0.80;;
72771;SDS011;60894;42.544;1.516;2023-03-11T11:15:21;2.33;;;0.90;;
72771;SDS011;60894;42.544;1.516;2023-03-11T11:17:50;1.55;;;0.80;;
72771;SDS011;60894;42.544;1.516;2023-03-11T11:20:20;1.90;;;0.80;;
72771;SDS011;60894;42.544;1.516;2023-03-11T11:22:50;1.70;;;0.85;;
72771;SDS011;60894;42.544;1.516;2023-03-11T11:25:27;3.28;;;1.23;;
72771;SDS011;60894;42.544;1.516;2023-03-11T11:27:57;4.13;;;0.93;;
72771;SDS011;60894;42.544;1.516;2023-03-11T11:30:26;2.65;;;1.00;;
72771;SDS011;60894;42.544;1.516;2023-03-11T11:32:53;3.33;;;0.90;;
72771;SDS011;60894;42.544;1.516;2023-03-11T11:35:21;2.60;;;1.10;;
72771;SDS011;60894;42.544;1.516;2023-03-11T11:37:50;3.33;;;0.90;;
72771;SDS011;60894;42.544;1.516;2023-03-11T11:40:23;1.33;;;0.63;;
72771;SDS011;60894;42.544;1.516;2023-03-11T11:42:54;1.35;;;0.60;;
72771;SDS011;60894;42.544;1.516;2023-03-11T11:45:31;1.25;;;0.70;;
72771;SDS011;60894;42.544;1.516;2023-03-11T11:48:03;2.28;;;0.85;;
72771;SDS011;60894;42.544;1.516;2023-03-11T11:50:39;2.13;;;1.20;;
72771;SDS011;60894;42.544;1.516;2023-03-11T11:53:12;4.73;;;1.50;;
72771;SDS011;60894;42.544;1.516;2023-03-11T11:55:46;5.40;;;3.70;;
72771;SDS011;60894;42.544;1.516;2023-03-11T11:58:15;3.97;;;1.02;;
72771;SDS011;60894;42.544;1.516;2023-03-11T12:00:45;4.28;;;0.90;;
72771;SDS011;60894;42.544;1.516;2023-03-11T12:03:26;2.55;;;0.90;;
72771;SDS011;60894;42.544;1.516;2023-03-11T12:06:16;2.20;;;0.50;;
72771;SDS011;60894;42.544;1.516;2023-03-11T12:08:50;3.13;;;0.30;;
72771;SDS011;60894;42.544;1.516;2023-03-11T12:11:26;2.10;;;0.90;;
72771;SDS011;60894;42.544;1.516;2023-03-11T12:14:04;4.13;;;1.60;;
72771;SDS011;60894;42.544;1.516;2023-03-11T12:16:40;2.33;;;1.25;;
72771;SDS011;60894;42.544;1.516;2023-03-11T12:19:13;1.70;;;0.60;;
72771;SDS011;60894;42.544;1.516;2023-03-11T12:21:48;3.00;;;0.70;;
72771;SDS011;60894;42.544;1.516;2023-03-11T12:24:43;0.93;;;0.40;;
72771;SDS011;60894;42.544;1.516;2023-03-11T12:27:24;2.60;;;0.73;;
72771;SDS011;60894;42.544;1.516;2023-03-11T12:29:56;2.45;;;0.80;;
72771;SDS011;60894;42.544;1.516;2023-03-11T12:32:28;1.03;;;0.60;;
72771;SDS011;60894;42.544;1.516;2023-03-11T12:35:00;1.80;;;0.50;;
72771;SDS011;60894;42.544;1.516;2023-03-11T12:37:28;1.58;;;0.80;;
72771;SDS011;60894;42.544;1.516;2023-03-11T12:39:56;1.05;;;0.60;;
72771;SDS011;60894;42.544;1.516;2023-03-11T12:42:23;0.50;;;0.50;;
72771;SDS011;60894;42.544;1.516;2023-03-11T12:48:32;2.17;;;1.13;;
72771;SDS011;60894;42.544;1.516;2023-03-11T12:51:00;1.98;;;0.70;;
72771;SDS011;60894;42.544;1.516;2023-03-11T12:56:21;1.77;;;0.57;;
72771;SDS011;60894;42.544;1.516;2023-03-11T12:59:08;1.87;;;0.70;;
72771;SDS011;60894;42.544;1.516;2023-03-11T13:01:50;2.47;;;0.70;;
72771;SDS011;60894;42.544;1.516;2023-03-11T13:04:37;1.65;;;0.55;;
72771;SDS011;60894;42.544;1.516;2023-03-11T13:10:14;1.13;;;0.60;;
72771;SDS011;60894;42.544;1.516;2023-03-11T13:12:45;0.80;;;0.30;;
72771;SDS011;60894;42.544;1.516;2023-03-11T13:18:11;1.10;;;0.60;;
72771;SDS011;60894;42.544;1.516;2023-03-11T13:20:44;1.35;;;0.98;;
72771;SDS011;60894;42.544;1.516;2023-03-11T13:23:22;1.20;;;0.40;;
72771;SDS011;60894;42.544;1.516;2023-03-11T13:31:43;1.13;;;0.50;;
72771;SDS011;60894;42.544;1.516;2023-03-11T13:34:22;2.42;;;0.75;;
72771;SDS011;60894;42.544;1.516;2023-03-11T13:37:08;3.50;;;0.80;;
72771;SDS011;60894;42.544;1.516;2023-03-11T13:39:48;2.87;;;1.30;;
72771;SDS011;60894;42.544;1.516;2023-03-11T13:42:25;3.53;;;1.60;;
72771;SDS011;60894;42.544;1.516;2023-03-11T13:44:55;1.58;;;0.90;;
72771;SDS011;60894;42.544;1.516;2023-03-11T13:47:23;2.22;;;0.80;;
72771;SDS011;60894;42.544;1.516;2023-03-11T13:49:52;3.47;;;1.40;;
72771;SDS011;60894;42.544;1.516;2023-03-11T13:52:28;0.70;;;0.40;;
72771;SDS011;60894;42.544;1.516;2023-03-11T13:54:59;1.83;;;0.70;;
72771;SDS011;60894;42.544;1.516;2023-03-11T13:57:29;1.17;;;0.60;;
72771;SDS011;60894;42.544;1.516;2023-03-11T14:00:03;0.65;;;0.30;;
72771;SDS011;60894;42.544;1.516;2023-03-11T14:02:42;0.30;;;0.20;;
72771;SDS011;60894;42.544;1.516;2023-03-11T14:05:12;4.07;;;0.50;;
72771;SDS011;60894;42.544;1.516;2023-03-11T14:07:43;0.82;;;0.30;;
72771;SDS011;60894;42.544;1.516;2023-03-11T14:10:15;0.40;;;0.40;;
72771;SDS011;60894;42.544;1.516;2023-03-11T14:12:43;1.77;;;0.40;;
72771;SDS011;60894;42.544;1.516;2023-03-11T14:15:12;1.85;;;0.30;;
72771;SDS011;60894;42.544;1.516;2023-03-11T14:17:41;2.50;;;0.40;;
72771;SDS011;60894;42.544;1.516;2023-03-11T14:20:11;0.20;;;0.20;;
72771;SDS011;60894;42.544;1.516;2023-03-11T14:22:44;0.60;;;0.60;;
72771;SDS011;60894;42.544;1.516;2023-03-11T14:25:15;1.02;;;0.60;;
72771;SDS011;60894;42.544;1.516;2023-03-11T14:27:45;0.80;;;0.60;;
72771;SDS011;60894;42.544;1.516;2023-03-11T14:30:17;0.40;;;0.40;;
72771;SDS011;60894;42.544;1.516;2023-03-11T14:32:54;0.93;;;0.50;;
72771;SDS011;60894;42.544;1.516;2023-03-11T14:35:25;1.00;;;0.40;;
72771;SDS011;60894;42.544;1.516;2023-03-11T14:37:54;1.00;;;0.30;;
72771;SDS011;60894;42.544;1.516;2023-03-11T14:40:22;0.20;;;0.20;;
72771;SDS011;60894;42.544;1.516;2023-03-11T14:42:51;0.20;;;0.20;;
72771;SDS011;60894;42.544;1.516;2023-03-11T14:45:20;0.60;;;0.28;;
72771;SDS011;60894;42.544;1.516;2023-03-11T14:47:49;1.25;;;0.50;;
72771;SDS011;60894;42.544;1.516;2023-03-11T14:50:20;0.40;;;0.40;;
72771;SDS011;60894;42.544;1.516;2023-03-11T14:52:49;0.30;;;0.30;;
72771;SDS011;60894;42.544;1.516;2023-03-11T14:55:22;2.03;;;0.60;;
72771;SDS011;60894;42.544;1.516;2023-03-11T14:57:54;0.80;;;0.40;;
72771;SDS011;60894;42.544;1.516;2023-03-11T15:00:26;0.50;;;0.30;;
72771;SDS011;60894;42.544;1.516;2023-03-11T15:02:58;1.40;;;0.40;;
72771;SDS011;60894;42.544;1.516;2023-03-11T15:05:32;0.57;;;0.20;;
72771;SDS011;60894;42.544;1.516;2023-03-11T15:08:03;0.67;;;0.30;;
72771;SDS011;60894;42.544;1.516;2023-03-11T15:10:34;0.77;;;0.40;;
72771;SDS011;60894;42.544;1.516;2023-03-11T15:13:08;0.73;;;0.60;;
72771;SDS011;60894;42.544;1.516;2023-03-11T15:15:39;1.75;;;0.38;;
72771;SDS011;60894;42.544;1.516;2023-03-11T15:18:20;1.48;;;0.30;;
72771;SDS011;60894;42.544;1.516;2023-03-11T15:20:59;1.03;;;0.30;;